createdAt,value
2022-12-04T00:00:04.026Z,18.00
2022-12-04T00:00:27.379Z,17.73
2022-12-04T00:00:50.300Z,17.55
2022-12-04T00:01:15.001Z,18.08
2022-12-04T00:01:37.795Z,17.67
2022-12-04T00:02:00.571Z,17.75
2022-12-04T00:02:23.272Z,18.23
2022-12-04T00:02:46.041Z,17.98
2022-12-04T00:03:08.913Z,18.15
2022-12-04T00:03:31.805Z,18.67
2022-12-04T00:03:54.717Z,18.58
2022-12-04T00:04:17.551Z,18.88
2022-12-04T00:04:40.369Z,18.08
2022-12-04T00:05:03.828Z,19.50
2022-12-04T00:05:29.033Z,18.98
2022-12-04T00:05:51.834Z,19.38
2022-12-04T00:06:15.379Z,19.77
2022-12-04T00:06:38.357Z,19.92
2022-12-04T00:07:01.138Z,19.58
2022-12-04T00:07:23.845Z,18.90
2022-12-04T00:07:46.665Z,18.88
2022-12-04T00:08:09.526Z,18.88
2022-12-04T00:08:32.320Z,18.63
2022-12-04T00:08:55.190Z,18.85
2022-12-04T00:09:17.920Z,18.55
2022-12-04T00:09:42.144Z,19.00
2022-12-04T00:10:05.819Z,18.40
2022-12-04T00:10:28.840Z,18.65
2022-12-04T00:10:54.400Z,18.65
2022-12-04T00:11:19.470Z,18.88
2022-12-04T00:11:42.572Z,18.98
2022-12-04T00:12:08.016Z,18.17
2022-12-04T00:12:31.198Z,17.95
2022-12-04T00:12:54.223Z,18.38
2022-12-04T00:13:19.385Z,17.98
2022-12-04T00:13:42.935Z,18.30
2022-12-04T00:14:07.398Z,17.98
2022-12-04T00:14:31.689Z,17.70
2022-12-04T00:15:42.892Z,18.23
2022-12-04T00:16:06.414Z,18.52
2022-12-04T00:16:30.096Z,18.00
2022-12-04T00:16:53.289Z,17.95
2022-12-04T00:17:16.419Z,17.05
2022-12-04T00:17:39.129Z,17.40
2022-12-04T00:18:01.945Z,17.55
2022-12-04T00:18:24.709Z,17.55
2022-12-04T00:18:47.514Z,18.20
2022-12-04T00:19:10.320Z,17.77
2022-12-04T00:19:33.129Z,16.85
2022-12-04T00:19:56.070Z,16.30
2022-12-04T00:20:20.064Z,16.55
2022-12-04T00:20:42.949Z,17.30
2022-12-04T00:21:05.790Z,16.35
2022-12-04T00:21:28.574Z,16.45
2022-12-04T00:21:51.460Z,16.85
2022-12-04T00:22:14.589Z,16.85
2022-12-04T00:22:37.390Z,16.55
2022-12-04T00:23:00.101Z,17.05
2022-12-04T00:23:22.954Z,16.90
2022-12-04T00:23:46.080Z,16.73
2022-12-04T00:24:08.930Z,17.25
2022-12-04T00:24:32.684Z,16.55
2022-12-04T00:24:56.770Z,16.40
2022-12-04T00:25:19.564Z,15.93
2022-12-04T00:25:42.535Z,16.80
2022-12-04T00:26:06.395Z,16.90
2022-12-04T00:26:31.225Z,17.42
2022-12-04T00:26:54.111Z,17.10
2022-12-04T00:27:16.954Z,17.73
2022-12-04T00:27:39.688Z,18.50
2022-12-04T00:28:02.492Z,17.90
2022-12-04T00:28:25.183Z,18.00
2022-12-04T00:28:47.980Z,18.30
2022-12-04T00:29:10.795Z,17.80
2022-12-04T00:29:33.590Z,17.90
2022-12-04T00:29:56.588Z,17.65
2022-12-04T00:30:19.565Z,17.90
2022-12-04T00:30:42.556Z,17.67
2022-12-04T00:31:06.399Z,17.20
2022-12-04T00:31:30.315Z,17.90
2022-12-04T00:31:53.233Z,18.25
2022-12-04T00:32:16.164Z,17.90
2022-12-04T00:32:38.851Z,17.70
2022-12-04T00:33:01.605Z,18.05
2022-12-04T00:33:24.339Z,17.67
2022-12-04T00:33:47.520Z,17.85
2022-12-04T00:34:10.397Z,18.23
2022-12-04T00:34:33.211Z,17.45
2022-12-04T00:34:56.005Z,17.05
2022-12-04T00:35:18.840Z,17.95
2022-12-04T00:35:41.732Z,17.35
2022-12-04T00:36:06.474Z,18.60
2022-12-04T00:36:29.481Z,18.35
2022-12-04T00:36:52.220Z,18.85
2022-12-04T00:37:14.985Z,18.52
2022-12-04T00:37:37.755Z,17.95
2022-12-04T00:38:00.559Z,18.00
2022-12-04T00:38:23.354Z,18.58
2022-12-04T00:38:46.235Z,18.42
2022-12-04T00:39:09.002Z,17.38
2022-12-04T00:39:31.780Z,17.88
2022-12-04T00:39:56.287Z,17.92
2022-12-04T00:40:19.469Z,17.00
2022-12-04T00:40:50.072Z,17.15
2022-12-04T00:41:13.934Z,17.65
2022-12-04T00:41:36.724Z,17.30
2022-12-04T00:41:59.415Z,18.42
2022-12-04T00:42:22.207Z,17.48
2022-12-04T00:42:44.959Z,17.58
2022-12-04T00:43:07.670Z,17.25
2022-12-04T00:43:31.274Z,17.58
2022-12-04T00:43:54.190Z,18.42
2022-12-04T00:44:17.031Z,18.05
2022-12-04T00:44:39.805Z,17.80
2022-12-04T00:45:02.597Z,18.25
2022-12-04T00:45:25.418Z,18.50
2022-12-04T00:45:48.371Z,18.17
2022-12-04T00:46:11.347Z,18.25
2022-12-04T00:46:34.173Z,17.48
2022-12-04T00:46:59.901Z,17.05
2022-12-04T00:47:22.639Z,17.73
2022-12-04T00:47:45.366Z,18.05
2022-12-04T00:48:08.465Z,17.88
2022-12-04T00:48:31.225Z,17.77
2022-12-04T00:48:54.398Z,18.13
2022-12-04T00:49:17.260Z,18.23
2022-12-04T00:49:40.013Z,18.25
2022-12-04T00:50:02.723Z,18.70
2022-12-04T00:50:25.445Z,18.52
2022-12-04T00:50:48.155Z,17.73
2022-12-04T00:51:12.086Z,18.52
2022-12-04T00:51:34.833Z,18.90
2022-12-04T00:51:57.559Z,18.77
2022-12-04T00:52:20.322Z,19.08
2022-12-04T00:52:43.050Z,18.73
2022-12-04T00:53:05.825Z,20.08
2022-12-04T00:53:29.145Z,20.02
2022-12-04T00:53:51.925Z,18.90
2022-12-04T00:54:14.719Z,19.70
2022-12-04T00:54:37.468Z,19.27
2022-12-04T00:55:01.589Z,19.00
2022-12-04T00:55:26.976Z,19.27
2022-12-04T00:55:49.964Z,19.23
2022-12-04T00:56:14.124Z,19.17
2022-12-04T00:56:36.955Z,19.73
2022-12-04T00:56:59.768Z,19.98
2022-12-04T00:57:22.453Z,19.48
2022-12-04T00:57:45.206Z,19.10
2022-12-04T00:58:08.045Z,19.77
2022-12-04T00:58:30.808Z,19.27
2022-12-04T00:58:53.677Z,19.02
2022-12-04T00:59:16.444Z,19.05
2022-12-04T00:59:39.279Z,20.00
2022-12-04T01:00:01.909Z,19.30
2022-12-04T01:00:24.795Z,20.23
2022-12-04T01:00:47.598Z,19.92
2022-12-04T01:01:12.756Z,20.00
2022-12-04T01:01:35.738Z,20.77
2022-12-04T01:01:58.500Z,19.63
2022-12-04T01:02:21.189Z,19.35
2022-12-04T01:02:44.057Z,20.13
2022-12-04T01:03:06.980Z,19.50
2022-12-04T01:03:29.805Z,19.80
2022-12-04T01:03:55.381Z,20.10
2022-12-04T01:04:18.104Z,20.05
2022-12-04T01:04:40.775Z,19.73
2022-12-04T01:05:03.889Z,20.77
2022-12-04T01:05:26.634Z,21.13
2022-12-04T01:05:49.414Z,20.63
2022-12-04T01:06:18.851Z,19.92
2022-12-04T01:06:41.605Z,19.48
2022-12-04T01:07:05.421Z,19.17
2022-12-04T01:07:28.660Z,19.58
2022-12-04T01:07:51.461Z,19.30
2022-12-04T01:08:14.357Z,20.05
2022-12-04T01:08:37.345Z,20.30
2022-12-04T01:09:00.900Z,20.02
2022-12-04T01:09:23.663Z,20.60
2022-12-04T01:09:46.393Z,19.95
2022-12-04T01:10:12.639Z,19.67
2022-12-04T01:10:35.380Z,18.65
2022-12-04T01:10:58.209Z,19.55
2022-12-04T01:11:21.258Z,19.13
2022-12-04T01:11:44.102Z,20.02
2022-12-04T01:12:07.149Z,19.52
2022-12-04T01:12:30.615Z,19.65
2022-12-04T01:12:53.940Z,19.90
2022-12-04T01:13:16.779Z,19.02
2022-12-04T01:13:39.634Z,18.83
2022-12-04T01:14:02.411Z,19.17
2022-12-04T01:14:25.341Z,18.75
2022-12-04T01:14:48.068Z,18.88
2022-12-04T01:15:11.484Z,19.00
2022-12-04T01:15:34.239Z,19.45
2022-12-04T01:15:56.981Z,19.85
2022-12-04T01:16:20.651Z,19.92
2022-12-04T01:16:43.414Z,19.45
2022-12-04T01:17:06.163Z,19.83
2022-12-04T01:17:28.974Z,20.48
2022-12-04T01:17:51.813Z,18.92
2022-12-04T01:18:17.006Z,20.02
2022-12-04T01:18:39.805Z,20.23
2022-12-04T01:19:02.604Z,19.85
2022-12-04T01:19:25.296Z,19.25
2022-12-04T01:19:48.415Z,20.13
2022-12-04T01:20:13.003Z,20.48
2022-12-04T01:20:35.734Z,19.52
2022-12-04T01:20:58.406Z,19.90
2022-12-04T01:21:21.317Z,19.38
2022-12-04T01:21:43.997Z,20.08
2022-12-04T01:22:06.719Z,20.65
2022-12-04T01:22:29.522Z,20.02
2022-12-04T01:22:52.319Z,20.27
2022-12-04T01:23:15.039Z,20.55
2022-12-04T01:23:37.749Z,19.95
2022-12-04T01:24:00.545Z,19.65
2022-12-04T01:24:23.259Z,19.88
2022-12-04T01:24:45.943Z,19.23
2022-12-04T01:25:11.521Z,18.88
2022-12-04T01:25:34.484Z,19.70
2022-12-04T01:25:58.479Z,19.77
2022-12-04T01:26:21.325Z,20.45
2022-12-04T01:26:44.062Z,20.50
2022-12-04T01:27:06.794Z,19.25
2022-12-04T01:27:29.464Z,19.17
2022-12-04T01:27:52.254Z,19.83
2022-12-04T01:28:15.004Z,19.27
2022-12-04T01:28:37.695Z,20.60
2022-12-04T01:29:00.392Z,19.95
2022-12-04T01:29:23.104Z,19.48
2022-12-04T01:29:46.423Z,19.45
2022-12-04T01:30:10.244Z,20.63
2022-12-04T01:30:33.105Z,19.90
2022-12-04T01:31:02.800Z,20.30
2022-12-04T01:31:25.625Z,20.15
2022-12-04T01:31:48.625Z,20.27
2022-12-04T01:32:11.484Z,18.95
2022-12-04T01:32:34.399Z,19.90
2022-12-04T01:32:57.440Z,19.98
2022-12-04T01:33:21.181Z,20.63
2022-12-04T01:33:43.844Z,19.95
2022-12-04T01:34:06.744Z,20.05
2022-12-04T01:34:29.509Z,20.92
2022-12-04T01:34:52.305Z,19.80
2022-12-04T01:35:15.066Z,19.52
2022-12-04T01:35:38.447Z,20.08
2022-12-04T01:36:01.661Z,20.17
2022-12-04T01:36:27.920Z,19.08
2022-12-04T01:36:52.430Z,19.83
2022-12-04T01:37:15.249Z,20.48
2022-12-04T01:37:37.963Z,20.40
2022-12-04T01:38:00.775Z,20.67
2022-12-04T01:38:23.834Z,19.95
2022-12-04T01:38:46.604Z,20.05
2022-12-04T01:39:09.275Z,19.65
2022-12-04T01:39:32.090Z,20.08
2022-12-04T01:39:55.172Z,19.48
2022-12-04T01:40:19.564Z,20.08
2022-12-04T01:40:44.346Z,19.63
2022-12-04T01:41:07.354Z,20.67
2022-12-04T01:41:30.844Z,20.55
2022-12-04T01:41:53.487Z,20.08
2022-12-04T01:42:16.151Z,19.58
2022-12-04T01:42:38.828Z,19.08
2022-12-04T01:43:01.711Z,19.45
2022-12-04T01:43:24.473Z,19.55
2022-12-04T01:44:12.252Z,19.73
2022-12-04T01:44:35.069Z,20.08
2022-12-04T01:45:29.334Z,19.67
2022-12-04T01:45:53.571Z,19.42
2022-12-04T01:46:16.362Z,19.63
2022-12-04T01:46:39.208Z,19.60
2022-12-04T01:47:02.006Z,19.65
2022-12-04T01:47:25.710Z,19.17
2022-12-04T01:47:48.451Z,19.30
2022-12-04T01:48:16.637Z,20.15
2022-12-04T01:48:42.240Z,19.05
2022-12-04T01:49:05.071Z,18.83
2022-12-04T01:49:30.736Z,19.80
2022-12-04T01:49:53.808Z,18.83
2022-12-04T01:50:16.967Z,19.40
2022-12-04T01:50:39.842Z,19.33
2022-12-04T01:51:06.688Z,19.27
2022-12-04T01:51:30.882Z,19.45
2022-12-04T01:51:54.986Z,19.45
2022-12-04T01:52:20.171Z,19.58
2022-12-04T01:52:42.982Z,20.75
2022-12-04T01:53:05.706Z,19.02
2022-12-04T01:53:28.753Z,19.38
2022-12-04T01:53:53.054Z,20.02
2022-12-04T01:54:17.701Z,19.58
2022-12-04T01:54:42.572Z,19.15
2022-12-04T01:55:05.933Z,19.42
2022-12-04T01:55:30.130Z,18.83
2022-12-04T01:55:52.825Z,18.58
2022-12-04T01:56:15.538Z,18.38
2022-12-04T01:56:40.330Z,18.27
2022-12-04T01:57:04.071Z,19.08
2022-12-04T01:57:28.016Z,18.23
2022-12-04T01:57:50.712Z,19.15
2022-12-04T01:58:13.407Z,19.00
2022-12-04T01:58:38.359Z,19.58
2022-12-04T01:59:01.385Z,19.52
2022-12-04T01:59:27.036Z,19.52
2022-12-04T01:59:51.065Z,19.80
2022-12-04T02:00:15.517Z,19.38
2022-12-04T02:00:38.194Z,19.85
2022-12-04T02:01:08.176Z,19.15
2022-12-04T02:01:34.473Z,19.63
2022-12-04T02:02:00.211Z,19.70
2022-12-04T02:02:24.584Z,19.60
2022-12-04T02:02:47.698Z,20.35
2022-12-04T02:03:10.642Z,19.77
2022-12-04T02:03:33.651Z,19.48
2022-12-04T02:03:56.396Z,18.88
2022-12-04T02:04:19.116Z,18.27
2022-12-04T02:04:42.293Z,18.65
2022-12-04T02:05:06.567Z,18.77
2022-12-04T02:05:29.352Z,19.55
2022-12-04T02:05:52.151Z,19.20
2022-12-04T02:06:14.871Z,19.55
2022-12-04T02:06:37.666Z,19.58
2022-12-04T02:07:00.345Z,19.38
2022-12-04T02:07:23.031Z,20.17
2022-12-04T02:07:46.818Z,19.80
2022-12-04T02:08:11.144Z,19.90
2022-12-04T02:08:34.070Z,19.55
2022-12-04T02:08:56.767Z,19.58
2022-12-04T02:09:26.134Z,19.58
2022-12-04T02:09:56.021Z,19.50
2022-12-04T02:10:24.825Z,19.15
2022-12-04T02:10:53.736Z,19.20
2022-12-04T02:11:22.371Z,18.60
2022-12-04T02:11:47.288Z,18.33
2022-12-04T02:12:14.162Z,18.88
2022-12-04T02:12:39.201Z,18.60
2022-12-04T02:13:04.072Z,19.33
2022-12-04T02:13:29.637Z,19.58
2022-12-04T02:13:55.646Z,18.42
2022-12-04T02:14:25.286Z,19.90
2022-12-04T02:14:52.142Z,18.80
2022-12-04T02:15:17.231Z,19.27
2022-12-04T02:15:43.711Z,18.88
2022-12-04T02:16:09.666Z,18.20
2022-12-04T02:16:35.441Z,19.13
2022-12-04T02:17:02.947Z,18.98
2022-12-04T02:17:27.775Z,19.13
2022-12-04T02:17:53.708Z,18.63
2022-12-04T02:18:19.217Z,18.80
2022-12-04T02:18:46.901Z,19.20
2022-12-04T02:19:19.996Z,18.85
2022-12-04T02:19:59.665Z,19.10
2022-12-04T02:20:30.210Z,19.08
2022-12-04T02:20:56.746Z,18.90
2022-12-04T02:21:21.689Z,18.98
2022-12-04T02:21:44.478Z,18.92
2022-12-04T02:22:10.631Z,18.77
2022-12-04T02:22:59.188Z,18.90
2022-12-04T02:23:51.044Z,18.80
2022-12-04T02:24:31.676Z,19.00
2022-12-04T02:24:56.800Z,19.20
2022-12-04T02:25:24.186Z,19.40
2022-12-04T02:25:54.501Z,19.35
2022-12-04T02:26:27.007Z,19.23
2022-12-04T02:26:50.671Z,18.73
2022-12-04T02:27:17.454Z,19.33
2022-12-04T02:28:06.776Z,18.52
2022-12-04T02:28:31.125Z,19.70
2022-12-04T02:28:55.531Z,18.90
2022-12-04T02:29:23.847Z,18.63
2022-12-04T02:29:49.036Z,18.77
2022-12-04T02:30:13.130Z,18.58
2022-12-04T02:30:37.713Z,18.70
2022-12-04T02:31:00.838Z,20.10
2022-12-04T02:31:26.786Z,19.73
2022-12-04T02:31:51.367Z,19.55
2022-12-04T02:32:16.641Z,19.20
2022-12-04T02:32:41.147Z,18.27
2022-12-04T02:33:06.019Z,19.00
2022-12-04T02:33:30.243Z,18.95
2022-12-04T02:33:59.796Z,18.52
2022-12-04T02:34:26.010Z,19.92
2022-12-04T02:34:51.842Z,19.02
2022-12-04T02:35:16.642Z,19.50
2022-12-04T02:35:41.428Z,19.35
2022-12-04T02:36:06.554Z,20.02
2022-12-04T02:36:31.146Z,19.00
2022-12-04T02:36:57.021Z,19.10
2022-12-04T02:37:21.927Z,19.42
2022-12-04T02:37:45.600Z,19.05
2022-12-04T02:38:12.167Z,19.30
2022-12-04T02:38:37.026Z,19.60
2022-12-04T02:39:03.044Z,19.45
2022-12-04T02:39:28.467Z,18.65
2022-12-04T02:39:52.932Z,19.23
2022-12-04T02:40:19.854Z,19.45
2022-12-04T02:40:45.285Z,18.75
2022-12-04T02:41:11.146Z,18.50
2022-12-04T02:41:36.655Z,19.13
2022-12-04T02:42:02.578Z,18.98
2022-12-04T02:42:28.932Z,18.80
2022-12-04T02:42:55.891Z,18.70
2022-12-04T02:43:19.667Z,19.15
2022-12-04T02:43:44.039Z,19.08
2022-12-04T02:44:09.111Z,19.20
2022-12-04T02:44:34.895Z,19.83
2022-12-04T02:44:58.586Z,19.13
2022-12-04T02:45:22.232Z,18.98
2022-12-04T02:45:46.658Z,19.45
2022-12-04T02:46:11.447Z,20.10
2022-12-04T02:46:36.796Z,20.13
2022-12-04T02:47:01.143Z,20.20
2022-12-04T02:47:24.466Z,20.38
2022-12-04T02:47:47.352Z,19.13
2022-12-04T02:48:10.103Z,18.75
2022-12-04T02:48:33.616Z,18.88
2022-12-04T02:48:58.296Z,18.55
2022-12-04T02:49:24.200Z,17.92
2022-12-04T02:49:49.208Z,18.42
2022-12-04T02:50:13.719Z,19.55
2022-12-04T02:50:38.857Z,19.48
2022-12-04T02:51:01.692Z,18.67
2022-12-04T02:51:25.279Z,18.92
2022-12-04T02:51:47.891Z,18.35
2022-12-04T02:52:11.894Z,18.65
2022-12-04T02:52:36.831Z,18.98
2022-12-04T02:53:00.946Z,18.73
2022-12-04T02:53:29.766Z,19.55
2022-12-04T02:53:54.581Z,19.05
2022-12-04T02:54:20.821Z,18.98
2022-12-04T02:54:45.478Z,19.08
2022-12-04T02:55:10.177Z,19.60
2022-12-04T02:55:35.376Z,19.88
2022-12-04T02:56:00.313Z,18.05
2022-12-04T02:56:24.669Z,19.27
2022-12-04T02:56:47.367Z,19.52
2022-12-04T02:57:12.337Z,19.25
2022-12-04T02:57:36.411Z,19.05
2022-12-04T02:58:02.411Z,18.48
2022-12-04T02:58:26.976Z,19.60
2022-12-04T02:58:51.314Z,20.38
2022-12-04T02:59:16.465Z,18.98
2022-12-04T02:59:40.892Z,18.92
2022-12-04T03:00:05.800Z,19.00
2022-12-04T03:00:28.596Z,19.08
2022-12-04T03:00:51.337Z,18.88
2022-12-04T03:01:22.254Z,18.98
2022-12-04T03:01:48.705Z,18.58
2022-12-04T03:02:13.151Z,19.17
2022-12-04T03:02:38.988Z,19.92
2022-12-04T03:03:03.155Z,19.00
2022-12-04T03:03:27.139Z,18.83
2022-12-04T03:03:52.015Z,18.80
2022-12-04T03:04:15.786Z,18.55
2022-12-04T03:04:38.771Z,18.92
2022-12-04T03:05:02.430Z,19.35
2022-12-04T03:05:27.852Z,19.00
2022-12-04T03:05:54.531Z,18.55
2022-12-04T03:06:17.274Z,20.05
2022-12-04T03:06:40.636Z,19.67
2022-12-04T03:07:06.117Z,19.73
2022-12-04T03:07:33.173Z,19.52
2022-12-04T03:07:57.829Z,20.02
2022-12-04T03:08:21.926Z,18.85
2022-12-04T03:08:46.463Z,19.13
2022-12-04T03:09:12.002Z,18.95
2022-12-04T03:09:36.327Z,19.67
2022-12-04T03:10:00.700Z,19.63
2022-12-04T03:10:25.122Z,19.77
2022-12-04T03:10:49.212Z,19.00
2022-12-04T03:11:12.199Z,19.55
2022-12-04T03:11:34.944Z,19.35
2022-12-04T03:11:58.246Z,19.33
2022-12-04T03:12:22.055Z,19.50
2022-12-04T03:12:47.361Z,19.83
2022-12-04T03:13:13.731Z,19.17
2022-12-04T03:13:39.221Z,20.00
2022-12-04T03:14:04.897Z,19.45
2022-12-04T03:14:29.432Z,19.20
2022-12-04T03:14:54.893Z,19.83
2022-12-04T03:15:19.582Z,19.92
2022-12-04T03:15:43.693Z,20.27
2022-12-04T03:16:09.070Z,20.33
2022-12-04T03:16:32.914Z,19.35
2022-12-04T03:16:58.023Z,19.52
2022-12-04T03:17:23.259Z,20.02
2022-12-04T03:17:48.180Z,19.60
2022-12-04T03:18:12.812Z,20.05
2022-12-04T03:18:38.178Z,19.90
2022-12-04T03:19:02.765Z,19.55
2022-12-04T03:19:27.105Z,20.15
2022-12-04T03:19:51.675Z,19.67
2022-12-04T03:20:14.827Z,19.55
2022-12-04T03:20:37.601Z,19.88
2022-12-04T03:21:01.596Z,20.60
2022-12-04T03:21:26.781Z,19.90
2022-12-04T03:21:51.676Z,20.23
2022-12-04T03:22:16.990Z,20.67
2022-12-04T03:22:41.271Z,19.83
2022-12-04T03:23:06.552Z,19.33
2022-12-04T03:23:33.911Z,19.65
2022-12-04T03:23:59.425Z,19.15
2022-12-04T03:24:24.385Z,20.55
2022-12-04T03:24:50.235Z,19.92
2022-12-04T03:25:14.103Z,19.27
2022-12-04T03:25:38.596Z,19.63
2022-12-04T03:26:03.195Z,20.77
2022-12-04T03:26:27.579Z,19.85
2022-12-04T03:26:52.488Z,20.17
2022-12-04T03:27:17.436Z,20.67
2022-12-04T03:27:42.881Z,20.30
2022-12-04T03:28:07.674Z,19.77
2022-12-04T03:28:33.923Z,20.23
2022-12-04T03:28:57.921Z,20.00
2022-12-04T03:29:21.634Z,20.45
2022-12-04T03:29:46.336Z,20.77
2022-12-04T03:30:10.083Z,20.15
2022-12-04T03:30:35.531Z,20.77
2022-12-04T03:31:00.669Z,19.38
2022-12-04T03:31:26.792Z,19.55
2022-12-04T03:31:51.020Z,20.35
2022-12-04T03:32:15.360Z,20.00
2022-12-04T03:32:40.815Z,20.13
2022-12-04T03:33:07.223Z,19.75
2022-12-04T03:33:31.841Z,18.92
2022-12-04T03:33:54.977Z,19.48
2022-12-04T03:34:21.791Z,20.38
2022-12-04T03:34:48.390Z,19.63
2022-12-04T03:35:13.935Z,19.77
2022-12-04T03:35:40.591Z,19.90
2022-12-04T03:36:05.911Z,20.98
2022-12-04T03:36:30.072Z,20.52
2022-12-04T03:36:53.816Z,20.38
2022-12-04T03:37:18.156Z,20.02
2022-12-04T03:37:44.636Z,19.05
2022-12-04T03:38:09.915Z,19.45
2022-12-04T03:38:36.031Z,20.02
2022-12-04T03:39:00.637Z,20.90
2022-12-04T03:39:25.127Z,20.52
2022-12-04T03:39:52.455Z,20.42
2022-12-04T03:40:18.428Z,20.20
2022-12-04T03:40:43.833Z,20.38
2022-12-04T03:41:09.121Z,20.05
2022-12-04T03:41:34.153Z,21.17
2022-12-04T03:41:58.763Z,21.02
2022-12-04T03:42:23.295Z,20.23
2022-12-04T03:42:48.031Z,20.63
2022-12-04T03:43:13.696Z,21.23
2022-12-04T03:43:39.671Z,21.60
2022-12-04T03:44:05.830Z,21.27
2022-12-04T03:44:32.358Z,20.50
2022-12-04T03:44:58.655Z,21.30
2022-12-04T03:45:22.435Z,19.83
2022-12-04T03:45:46.362Z,19.33
2022-12-04T03:46:11.040Z,20.42
2022-12-04T03:46:35.916Z,20.00
2022-12-04T03:47:00.896Z,19.85
2022-12-04T03:47:26.406Z,19.15
2022-12-04T03:47:53.878Z,19.83
2022-12-04T03:48:22.979Z,20.73
2022-12-04T03:48:47.360Z,20.42
2022-12-04T03:49:14.091Z,20.23
2022-12-04T03:49:42.409Z,19.85
2022-12-04T03:50:08.791Z,19.85
2022-12-04T03:50:35.556Z,20.33
2022-12-04T03:51:00.490Z,20.77
2022-12-04T03:51:25.865Z,20.77
2022-12-04T03:51:51.361Z,20.58
2022-12-04T03:52:17.149Z,21.00
2022-12-04T03:52:42.506Z,21.13
2022-12-04T03:53:08.631Z,20.00
2022-12-04T03:53:32.952Z,20.67
2022-12-04T03:53:56.436Z,21.63
2022-12-04T03:54:20.161Z,20.42
2022-12-04T03:54:45.118Z,21.08
2022-12-04T03:55:09.415Z,21.08
2022-12-04T03:55:34.955Z,20.00
2022-12-04T03:56:00.370Z,20.75
2022-12-04T03:56:24.039Z,20.88
2022-12-04T03:56:48.307Z,21.48
2022-12-04T03:57:14.935Z,21.63
2022-12-04T03:57:39.950Z,21.65
2022-12-04T03:58:05.126Z,20.73
2022-12-04T03:58:29.615Z,20.95
2022-12-04T03:58:55.031Z,19.95
2022-12-04T03:59:20.355Z,20.52
2022-12-04T03:59:45.291Z,20.98
2022-12-04T04:00:11.218Z,20.45
2022-12-04T04:00:33.989Z,19.92
2022-12-04T04:00:57.036Z,20.20
2022-12-04T04:01:21.323Z,19.58
2022-12-04T04:01:46.732Z,20.42
2022-12-04T04:02:11.404Z,20.63
2022-12-04T04:02:38.092Z,21.05
2022-12-04T04:03:04.433Z,20.75
2022-12-04T04:03:28.641Z,21.58
2022-12-04T04:03:52.220Z,21.63
2022-12-04T04:04:17.360Z,20.73
2022-12-04T04:04:40.955Z,20.83
2022-12-04T04:05:04.315Z,21.65
2022-12-04T04:05:27.357Z,21.52
2022-12-04T04:05:51.671Z,21.42
2022-12-04T04:06:16.636Z,21.15
2022-12-04T04:06:42.572Z,21.52
2022-12-04T04:07:09.582Z,21.95
2022-12-04T04:07:35.724Z,21.98
2022-12-04T04:08:22.017Z,21.63
2022-12-04T04:08:46.116Z,22.00
2022-12-04T04:09:11.041Z,22.63
2022-12-04T04:09:36.008Z,22.05
2022-12-04T04:10:01.186Z,22.35
2022-12-04T04:10:25.639Z,22.00
2022-12-04T04:10:48.755Z,22.25
2022-12-04T04:11:13.771Z,21.25
2022-12-04T04:11:38.560Z,22.15
2022-12-04T04:12:03.558Z,21.35
2022-12-04T04:12:27.428Z,21.95
2022-12-04T04:13:11.526Z,22.08
2022-12-04T04:13:58.094Z,21.10
2022-12-04T04:14:39.855Z,22.05
2022-12-04T04:15:23.242Z,21.58
2022-12-04T04:16:07.578Z,21.65
2022-12-04T04:16:50.335Z,21.40
2022-12-04T04:17:38.226Z,22.23
2022-12-04T04:18:20.325Z,21.02
2022-12-04T04:19:02.157Z,21.83
2022-12-04T04:19:44.416Z,22.13
2022-12-04T04:20:29.040Z,21.23
2022-12-04T04:21:13.130Z,20.95
2022-12-04T04:21:54.654Z,21.20
2022-12-04T04:22:36.961Z,21.17
2022-12-04T04:23:18.882Z,20.08
2022-12-04T04:24:02.889Z,20.02
2022-12-04T04:24:28.966Z,20.27
2022-12-04T04:24:53.750Z,20.27
2022-12-04T04:25:17.806Z,20.48
2022-12-04T04:25:41.511Z,19.88
2022-12-04T04:26:04.321Z,20.42
2022-12-04T04:26:27.322Z,20.27
2022-12-04T04:26:50.045Z,20.25
2022-12-04T04:27:12.810Z,20.63
2022-12-04T04:27:38.071Z,20.17
2022-12-04T04:28:00.805Z,20.50
2022-12-04T04:28:33.352Z,19.95
2022-12-04T04:28:56.076Z,20.80
2022-12-04T04:29:18.776Z,19.75
2022-12-04T04:29:45.606Z,19.67
2022-12-04T04:30:13.620Z,19.63
2022-12-04T04:30:36.346Z,18.73
2022-12-04T04:31:10.219Z,18.42
2022-12-04T04:31:34.543Z,19.40
2022-12-04T04:31:59.648Z,19.80
2022-12-04T04:32:26.161Z,20.40
2022-12-04T04:32:51.002Z,20.45
2022-12-04T04:33:15.295Z,19.70
2022-12-04T04:33:44.831Z,20.17
2022-12-04T04:34:11.957Z,20.88
2022-12-04T04:34:38.602Z,20.05
2022-12-04T04:35:04.815Z,19.63
2022-12-04T04:35:30.408Z,19.77
2022-12-04T04:35:54.556Z,20.13
2022-12-04T04:36:22.235Z,19.67
2022-12-04T04:36:49.003Z,19.00
2022-12-04T04:37:14.831Z,20.15
2022-12-04T04:37:41.190Z,19.33
2022-12-04T04:38:07.051Z,20.05
2022-12-04T04:38:32.000Z,19.35
2022-12-04T04:39:00.960Z,19.83
2022-12-04T04:39:28.791Z,20.15
2022-12-04T04:40:02.094Z,19.73
2022-12-04T04:40:27.427Z,20.15
2022-12-04T04:40:53.862Z,19.15
2022-12-04T04:41:18.895Z,18.83
2022-12-04T04:41:44.652Z,19.30
2022-12-04T04:42:10.710Z,18.55
2022-12-04T04:42:34.870Z,18.75
2022-12-04T04:43:00.215Z,18.60
2022-12-04T04:43:25.084Z,19.90
2022-12-04T04:43:51.426Z,18.80
2022-12-04T04:44:17.768Z,19.40
2022-12-04T04:44:45.445Z,19.42
2022-12-04T04:45:10.871Z,20.02
2022-12-04T04:45:35.685Z,19.98
2022-12-04T04:45:59.144Z,19.50
2022-12-04T04:46:23.410Z,19.48
2022-12-04T04:46:48.412Z,19.73
2022-12-04T04:47:13.606Z,19.50
2022-12-04T04:47:41.430Z,19.73
2022-12-04T04:48:06.387Z,20.33
2022-12-04T04:48:31.971Z,19.35
2022-12-04T04:48:56.400Z,20.27
2022-12-04T04:49:19.160Z,19.63
2022-12-04T04:49:41.912Z,20.00
2022-12-04T04:50:09.438Z,19.35
2022-12-04T04:50:32.407Z,19.08
2022-12-04T04:50:55.210Z,19.70
2022-12-04T04:51:17.911Z,19.15
2022-12-04T04:51:40.641Z,19.50
2022-12-04T04:52:06.270Z,19.33
2022-12-04T04:52:28.962Z,19.65
2022-12-04T04:52:53.961Z,19.50
2022-12-04T04:53:18.100Z,19.08
2022-12-04T04:53:42.716Z,18.88
2022-12-04T04:54:06.794Z,18.60
2022-12-04T04:54:29.906Z,18.73
2022-12-04T04:54:52.636Z,19.45
2022-12-04T04:55:15.831Z,19.98
2022-12-04T04:55:38.647Z,19.63
2022-12-04T04:56:05.452Z,18.73
2022-12-04T04:56:28.167Z,18.80
2022-12-04T04:56:50.971Z,18.58
2022-12-04T04:57:13.688Z,18.20
2022-12-04T04:57:36.641Z,18.45
2022-12-04T04:58:07.216Z,18.38
2022-12-04T04:58:29.947Z,18.30
2022-12-04T04:58:52.635Z,17.63
2022-12-04T04:59:15.385Z,17.85
2022-12-04T04:59:38.085Z,18.00
2022-12-04T05:00:02.398Z,18.65
2022-12-04T05:00:25.370Z,17.42
2022-12-04T05:00:50.992Z,17.67
2022-12-04T05:01:14.662Z,18.63
2022-12-04T05:01:37.656Z,17.98
2022-12-04T05:02:03.541Z,18.88
2022-12-04T05:02:26.650Z,18.23
2022-12-04T05:02:50.555Z,18.42
2022-12-04T05:03:13.494Z,19.50
2022-12-04T05:03:38.723Z,20.38
2022-12-04T05:04:01.476Z,19.20
2022-12-04T05:04:24.192Z,18.63
2022-12-04T05:04:46.883Z,19.48
2022-12-04T05:05:10.189Z,19.65
2022-12-04T05:05:32.954Z,18.52
2022-12-04T05:05:55.692Z,18.88
2022-12-04T05:06:18.430Z,20.75
2022-12-04T05:06:41.156Z,20.58
2022-12-04T05:07:03.849Z,19.83
2022-12-04T05:07:26.686Z,19.27
2022-12-04T05:07:49.651Z,19.80
2022-12-04T05:08:12.501Z,21.10
2022-12-04T05:08:35.476Z,20.05
2022-12-04T05:08:58.247Z,20.00
2022-12-04T05:09:23.730Z,20.30
2022-12-04T05:09:46.485Z,20.80
2022-12-04T05:10:11.118Z,20.27
2022-12-04T05:10:33.922Z,19.98
2022-12-04T05:10:57.057Z,20.73
2022-12-04T05:11:19.830Z,19.80
2022-12-04T05:11:42.676Z,20.63
2022-12-04T05:12:05.767Z,20.23
2022-12-04T05:12:28.516Z,19.75
2022-12-04T05:12:51.321Z,20.02
2022-12-04T05:13:14.176Z,20.77
2022-12-04T05:13:36.846Z,21.13
2022-12-04T05:13:59.691Z,21.02
2022-12-04T05:14:22.470Z,20.90
2022-12-04T05:14:46.539Z,20.38
2022-12-04T05:15:11.772Z,20.45
2022-12-04T05:15:34.564Z,20.45
2022-12-04T05:15:58.019Z,20.35
2022-12-04T05:16:21.074Z,20.58
2022-12-04T05:16:43.945Z,20.02
2022-12-04T05:17:12.325Z,20.23
2022-12-04T05:17:36.047Z,19.63
2022-12-04T05:17:58.735Z,19.58
2022-12-04T05:18:23.836Z,20.05
2022-12-04T05:19:07.851Z,19.35
2022-12-04T05:19:51.703Z,19.67
2022-12-04T05:20:14.578Z,20.75
2022-12-04T05:20:38.850Z,19.90
2022-12-04T05:21:06.076Z,20.13
2022-12-04T05:21:29.126Z,20.58
2022-12-04T05:21:51.966Z,20.80